createdAt,value
2023-06-02T00:00:22.491Z,70.60
2023-06-02T00:01:22.573Z,70.30
2023-06-02T00:02:22.838Z,70.25
2023-06-02T00:03:22.900Z,70.59
2023-06-02T00:04:23.004Z,70.64
2023-06-02T00:05:23.130Z,70.41
2023-06-02T00:06:26.899Z,70.45
2023-06-02T00:07:23.351Z,70.50
2023-06-02T00:08:23.454Z,70.50
2023-06-02T00:09:23.623Z,70.06
2023-06-02T00:10:23.720Z,69.99
2023-06-02T00:11:23.822Z,70.03
2023-06-02T00:12:23.978Z,70.11
2023-06-02T00:13:24.224Z,70.41
2023-06-02T00:14:24.233Z,70.61
2023-06-02T00:15:24.339Z,70.56
2023-06-02T00:16:24.541Z,70.34
2023-06-02T00:17:24.627Z,70.27
2023-06-02T00:18:24.727Z,69.90
2023-06-02T00:19:24.866Z,69.98
2023-06-02T00:20:25.011Z,69.98
2023-06-02T00:21:25.318Z,70.04
2023-06-02T00:22:25.264Z,70.03
2023-06-02T00:23:25.377Z,69.78
2023-06-02T00:24:25.478Z,69.91
2023-06-02T00:25:25.587Z,69.44
2023-06-02T00:26:25.687Z,69.39
2023-06-02T00:27:25.832Z,69.16
2023-06-02T00:28:25.929Z,69.64
2023-06-02T00:29:26.077Z,69.68
2023-06-02T00:30:26.186Z,69.39
2023-06-02T00:31:26.337Z,69.55
2023-06-02T00:32:26.533Z,69.30
2023-06-02T00:33:26.619Z,69.65
2023-06-02T00:34:26.749Z,69.42
2023-06-02T00:35:26.895Z,69.67
2023-06-02T00:36:27.033Z,69.76
2023-06-02T00:37:27.142Z,69.41
2023-06-02T00:38:27.246Z,69.28
2023-06-02T00:39:27.371Z,69.19
2023-06-02T00:40:27.517Z,69.28
2023-06-02T00:41:27.604Z,69.34
2023-06-02T00:42:27.797Z,69.35
2023-06-02T00:43:27.888Z,69.60
2023-06-02T00:44:27.973Z,69.96
2023-06-02T00:45:28.123Z,69.83
2023-06-02T00:46:28.281Z,69.76
2023-06-02T00:47:28.392Z,69.61
2023-06-02T00:48:28.502Z,69.83
2023-06-02T00:49:28.620Z,69.59
2023-06-02T00:50:28.713Z,69.91
2023-06-02T00:51:28.856Z,69.81
2023-06-02T00:52:28.987Z,69.72
2023-06-02T00:53:29.157Z,69.30
2023-06-02T00:54:29.251Z,69.18
2023-06-02T00:55:29.522Z,69.52
2023-06-02T00:56:29.483Z,69.57
2023-06-02T00:57:29.691Z,68.96
2023-06-02T00:58:29.805Z,69.22
2023-06-02T00:59:29.909Z,69.34
2023-06-02T01:00:30.050Z,69.07
2023-06-02T01:01:30.213Z,69.53
2023-06-02T01:02:30.314Z,68.81
2023-06-02T01:03:30.432Z,68.91
2023-06-02T01:04:30.527Z,68.62
2023-06-02T01:05:30.689Z,68.72
2023-06-02T01:06:30.780Z,68.37
2023-06-02T01:07:30.922Z,68.23
2023-06-02T01:08:31.085Z,68.78
2023-06-02T01:09:31.209Z,68.71
2023-06-02T01:10:31.331Z,68.77
2023-06-02T01:11:31.465Z,68.72
2023-06-02T01:12:31.584Z,68.27
2023-06-02T01:13:31.716Z,68.49
2023-06-02T01:14:31.783Z,68.59
2023-06-02T01:15:31.909Z,68.35
2023-06-02T01:16:32.093Z,68.78
2023-06-02T01:17:32.215Z,68.79
2023-06-02T01:18:32.375Z,68.93
2023-06-02T01:19:32.466Z,68.89
2023-06-02T01:20:32.614Z,68.84
2023-06-02T01:21:32.797Z,68.62
2023-06-02T01:22:32.864Z,68.75
2023-06-02T01:23:32.982Z,68.46
2023-06-02T01:24:33.089Z,68.72
2023-06-02T01:25:33.188Z,68.33
2023-06-02T01:26:33.293Z,68.43
2023-06-02T01:27:33.387Z,68.45
2023-06-02T01:28:33.600Z,68.52
2023-06-02T01:29:33.666Z,68.60
2023-06-02T01:30:33.851Z,68.69
2023-06-02T01:31:33.914Z,68.52
2023-06-02T01:32:34.136Z,68.69
2023-06-02T01:33:34.175Z,68.46
2023-06-02T01:34:34.301Z,68.87
2023-06-02T01:35:34.563Z,68.95
2023-06-02T01:36:34.597Z,68.88
2023-06-02T01:37:34.755Z,68.97
2023-06-02T01:38:34.896Z,69.19
2023-06-02T01:39:35.066Z,69.06
2023-06-02T01:40:35.189Z,68.80
2023-06-02T01:41:35.316Z,68.60
2023-06-02T01:42:35.410Z,68.61
2023-06-02T01:43:35.557Z,68.79
2023-06-02T01:44:35.768Z,68.63
2023-06-02T01:45:35.831Z,68.58
2023-06-02T01:46:36.061Z,68.71
2023-06-02T01:47:36.145Z,68.53
2023-06-02T01:48:36.257Z,68.60
2023-06-02T01:49:36.372Z,68.80
2023-06-02T01:50:36.514Z,69.13
2023-06-02T01:51:36.609Z,68.67
2023-06-02T01:52:36.710Z,68.74
2023-06-02T01:53:36.856Z,68.45
2023-06-02T01:54:37.001Z,68.30
2023-06-02T01:55:38.662Z,68.56
2023-06-02T01:56:37.288Z,68.13
2023-06-02T01:57:37.345Z,68.23
2023-06-02T01:58:37.465Z,68.47
2023-06-02T01:59:37.553Z,68.77
2023-06-02T02:00:37.668Z,68.19
2023-06-02T02:01:37.969Z,68.19
2023-06-02T02:02:38.007Z,68.33
2023-06-02T02:03:38.070Z,68.18
2023-06-02T02:04:38.150Z,68.32
2023-06-02T02:05:38.313Z,68.47
2023-06-02T02:06:38.474Z,68.61
2023-06-02T02:07:38.620Z,68.68
2023-06-02T02:08:38.656Z,68.65
2023-06-02T02:09:38.809Z,68.21
2023-06-02T02:10:38.908Z,68.23
2023-06-02T02:11:39.012Z,68.37
2023-06-02T02:12:39.173Z,68.84
2023-06-02T02:13:39.299Z,68.80
2023-06-02T02:14:39.447Z,68.82
2023-06-02T02:15:39.565Z,68.17
2023-06-02T02:16:39.756Z,67.98
2023-06-02T02:17:39.828Z,68.27
2023-06-02T02:18:39.899Z,68.51
2023-06-02T02:19:40.018Z,68.61
2023-06-02T02:20:40.138Z,68.74
2023-06-02T02:21:40.245Z,68.41
2023-06-02T02:22:40.372Z,68.61
2023-06-02T02:23:40.528Z,68.45
2023-06-02T02:24:40.585Z,68.42
2023-06-02T02:25:40.705Z,68.49
2023-06-02T02:26:40.812Z,69.11
2023-06-02T02:27:40.940Z,68.88
2023-06-02T02:28:41.136Z,69.18
2023-06-02T02:29:41.233Z,69.47
2023-06-02T02:30:41.391Z,68.91
2023-06-02T02:31:41.506Z,68.73
2023-06-02T02:32:41.648Z,68.72
2023-06-02T02:33:41.787Z,68.92
2023-06-02T02:34:41.821Z,68.84
2023-06-02T02:35:41.926Z,68.82
2023-06-02T02:36:42.073Z,68.63
2023-06-02T02:37:47.365Z,68.68
2023-06-02T02:38:43.393Z,68.84
2023-06-02T02:39:42.461Z,68.83
2023-06-02T02:40:42.638Z,68.92
2023-06-02T02:41:42.731Z,69.13
2023-06-02T02:42:42.888Z,69.28
2023-06-02T02:43:42.970Z,69.33
2023-06-02T02:44:43.160Z,69.02
2023-06-02T02:45:43.280Z,69.32
2023-06-02T02:46:43.396Z,69.20
2023-06-02T02:47:43.569Z,69.07
2023-06-02T02:48:43.670Z,69.06
2023-06-02T02:49:43.874Z,69.23
2023-06-02T02:50:47.523Z,69.44
2023-06-02T02:51:44.106Z,69.64
2023-06-02T02:52:44.255Z,69.46
2023-06-02T02:53:44.345Z,69.51
2023-06-02T02:54:44.522Z,69.65
2023-06-02T02:55:44.644Z,69.37
2023-06-02T02:56:44.832Z,69.49
2023-06-02T02:57:44.864Z,69.50
2023-06-02T02:58:44.991Z,69.00
2023-06-02T02:59:45.137Z,69.08
2023-06-02T03:00:45.293Z,68.62
2023-06-02T03:01:45.545Z,68.56
2023-06-02T03:02:45.573Z,68.71
2023-06-02T03:03:45.785Z,68.45
2023-06-02T03:04:46.325Z,68.32
2023-06-02T03:05:45.937Z,68.30
2023-06-02T03:06:46.117Z,68.03
2023-06-02T03:07:46.377Z,68.35
2023-06-02T03:08:46.371Z,68.09
2023-06-02T03:09:46.465Z,67.90
2023-06-02T03:10:46.623Z,67.49
2023-06-02T03:11:46.731Z,67.66
2023-06-02T03:12:46.872Z,67.44
2023-06-02T03:13:46.981Z,67.81
2023-06-02T03:14:47.104Z,67.92
2023-06-02T03:15:47.264Z,68.11
2023-06-02T03:16:47.421Z,67.78
2023-06-02T03:17:47.571Z,67.91
2023-06-02T03:18:47.600Z,67.24
2023-06-02T03:19:47.704Z,67.39
2023-06-02T03:20:47.801Z,67.49
2023-06-02T03:21:47.905Z,67.58
2023-06-02T03:22:48.046Z,67.41
2023-06-02T03:23:48.147Z,67.48
2023-06-02T03:24:48.244Z,67.88
2023-06-02T03:25:48.339Z,67.99
2023-06-02T03:26:48.448Z,68.40
2023-06-02T03:27:48.637Z,68.04
2023-06-02T03:28:48.728Z,68.39
2023-06-02T03:29:48.845Z,68.00
2023-06-02T03:30:48.988Z,67.92
2023-06-02T03:31:49.152Z,67.41
2023-06-02T03:32:49.333Z,67.98
2023-06-02T03:33:49.352Z,67.77
2023-06-02T03:34:49.449Z,67.75
2023-06-02T03:35:49.607Z,67.85
2023-06-02T03:36:49.727Z,67.92
2023-06-02T03:37:49.873Z,68.06
2023-06-02T03:38:49.979Z,67.68
2023-06-02T03:39:50.081Z,67.58
2023-06-02T03:40:50.207Z,67.70
2023-06-02T03:41:50.299Z,67.86
2023-06-02T03:42:50.460Z,67.71
2023-06-02T03:43:50.506Z,67.49
2023-06-02T03:44:50.618Z,67.93
2023-06-02T03:45:50.718Z,67.97
2023-06-02T03:46:51.073Z,67.98
2023-06-02T03:47:51.103Z,68.00
2023-06-02T03:48:51.140Z,68.12
2023-06-02T03:49:51.248Z,67.29
2023-06-02T03:50:51.346Z,67.29
2023-06-02T03:51:51.554Z,67.57
2023-06-02T03:52:51.576Z,67.68
2023-06-02T03:53:51.688Z,67.26
2023-06-02T03:54:51.912Z,67.64
2023-06-02T03:55:51.971Z,67.58
2023-06-02T03:56:52.097Z,67.39
2023-06-02T03:57:52.203Z,67.45
2023-06-02T03:58:52.316Z,67.16
2023-06-02T03:59:52.468Z,67.58
2023-06-02T04:00:52.600Z,67.27
2023-06-02T04:01:52.706Z,67.08
2023-06-02T04:02:52.857Z,66.76
2023-06-02T04:03:53.008Z,67.16
2023-06-02T04:04:53.195Z,67.33
2023-06-02T04:05:53.227Z,67.72
2023-06-02T04:06:53.333Z,67.34
2023-06-02T04:07:53.471Z,67.52
2023-06-02T04:08:53.589Z,67.44
2023-06-02T04:09:53.730Z,67.62
2023-06-02T04:10:53.816Z,68.06
2023-06-02T04:11:54.044Z,68.12
2023-06-02T04:12:54.099Z,67.94
2023-06-02T04:13:54.200Z,67.78
2023-06-02T04:14:54.331Z,67.79
2023-06-02T04:15:54.400Z,67.56
2023-06-02T04:16:54.647Z,67.60
2023-06-02T04:17:54.623Z,67.81
2023-06-02T04:18:54.750Z,67.64
2023-06-02T04:19:54.907Z,67.61
2023-06-02T04:20:54.924Z,67.44
2023-06-02T04:21:55.099Z,67.65
2023-06-02T04:22:55.156Z,67.55
2023-06-02T04:23:55.242Z,67.17
2023-06-02T04:24:55.440Z,67.46
2023-06-02T04:25:55.543Z,67.55
2023-06-02T04:26:55.652Z,67.26
2023-06-02T04:27:55.803Z,67.47
2023-06-02T04:28:55.914Z,66.66
2023-06-02T04:29:56.021Z,67.10
2023-06-02T04:30:56.179Z,67.05
2023-06-02T04:31:56.342Z,66.57
2023-06-02T04:32:56.493Z,66.82
2023-06-02T04:33:56.552Z,66.43
2023-06-02T04:34:56.665Z,66.94
2023-06-02T04:35:56.833Z,67.22
2023-06-02T04:36:56.990Z,67.37
2023-06-02T04:37:57.088Z,66.97
2023-06-02T04:38:57.178Z,66.86
2023-06-02T04:39:57.277Z,67.05
2023-06-02T04:40:57.404Z,67.13
2023-06-02T04:41:57.538Z,67.24
2023-06-02T04:42:57.594Z,67.21
2023-06-02T04:43:57.725Z,67.14
2023-06-02T04:44:57.852Z,67.23
2023-06-02T04:45:58.092Z,67.18
2023-06-02T04:46:58.194Z,67.06
2023-06-02T04:47:58.287Z,67.14
2023-06-02T04:48:58.320Z,67.08
2023-06-02T04:49:58.469Z,67.39
2023-06-02T04:50:58.557Z,67.47
2023-06-02T04:51:58.792Z,67.71
2023-06-02T04:52:58.816Z,67.60
2023-06-02T04:53:58.921Z,67.90
2023-06-02T04:54:59.019Z,68.05
2023-06-02T04:55:59.171Z,68.15
2023-06-02T04:56:59.292Z,68.15
2023-06-02T04:57:59.397Z,68.34
2023-06-02T04:58:59.566Z,68.43
2023-06-02T04:59:59.642Z,68.34
2023-06-02T05:00:59.804Z,68.25
2023-06-02T05:02:00.005Z,68.26
2023-06-02T05:03:00.090Z,68.39
2023-06-02T05:04:00.309Z,68.04
2023-06-02T05:05:00.292Z,68.09
2023-06-02T05:06:00.385Z,68.31
2023-06-02T05:07:00.488Z,68.53
2023-06-02T05:08:00.625Z,68.10
2023-06-02T05:09:00.725Z,67.63
2023-06-02T05:10:00.889Z,67.45
2023-06-02T05:11:00.944Z,67.29
2023-06-02T05:12:01.070Z,67.41
2023-06-02T05:13:01.136Z,67.71
2023-06-02T05:14:01.273Z,67.58
2023-06-02T05:15:01.420Z,67.23
2023-06-02T05:16:01.659Z,67.42
2023-06-02T05:17:01.564Z,67.30
2023-06-02T05:18:01.789Z,66.64
2023-06-02T05:19:01.824Z,66.36
2023-06-02T05:20:01.970Z,66.62
2023-06-02T05:21:02.074Z,66.02
2023-06-02T05:22:02.235Z,66.09
2023-06-02T05:23:02.342Z,65.69
2023-06-02T05:24:02.422Z,65.78
2023-06-02T05:25:02.579Z,65.95
2023-06-02T05:26:02.677Z,66.11
2023-06-02T05:27:02.774Z,66.24
2023-06-02T05:28:02.926Z,66.19
2023-06-02T05:29:03.089Z,65.93
2023-06-02T05:30:03.228Z,65.47
2023-06-02T05:31:04.174Z,65.46
2023-06-02T05:32:03.503Z,65.52
2023-06-02T05:33:03.659Z,65.74
2023-06-02T05:34:03.726Z,65.63
2023-06-02T05:35:03.845Z,65.32
2023-06-02T05:36:04.223Z,65.88
2023-06-02T05:37:04.060Z,65.18
2023-06-02T05:38:04.174Z,64.90
2023-06-02T05:39:04.291Z,65.26
2023-06-02T05:40:04.393Z,66.14
2023-06-02T05:41:04.560Z,65.92
2023-06-02T05:42:04.612Z,65.42
2023-06-02T05:43:04.755Z,65.81
2023-06-02T05:44:04.875Z,64.87
2023-06-02T05:45:04.964Z,65.09
2023-06-02T05:46:05.422Z,65.29
2023-06-02T05:47:05.231Z,65.82
2023-06-02T05:48:05.338Z,65.14
2023-06-02T05:49:05.414Z,64.33
2023-06-02T05:50:05.566Z,63.91
2023-06-02T05:51:05.660Z,64.56
2023-06-02T05:52:05.751Z,64.15
2023-06-02T05:53:05.863Z,63.51
2023-06-02T05:54:05.956Z,64.56
2023-06-02T05:55:06.132Z,64.76
2023-06-02T05:56:06.450Z,64.13
2023-06-02T05:57:06.374Z,64.86
2023-06-02T05:58:06.453Z,64.65
2023-06-02T05:59:06.608Z,64.72
2023-06-02T06:00:06.769Z,64.59
2023-06-02T06:01:06.830Z,63.89
2023-06-02T06:02:06.953Z,63.92
2023-06-02T06:03:07.253Z,64.52
2023-06-02T06:04:07.176Z,64.41
2023-06-02T06:05:07.316Z,64.24
2023-06-02T06:06:07.956Z,64.53
2023-06-02T06:07:07.514Z,64.46
2023-06-02T06:08:07.647Z,64.26
2023-06-02T06:09:07.744Z,63.62
2023-06-02T06:10:07.913Z,64.04
2023-06-02T06:11:08.065Z,63.95
2023-06-02T06:12:08.087Z,64.04
2023-06-02T06:13:08.306Z,63.84
2023-06-02T06:14:08.342Z,63.76
2023-06-02T06:15:08.467Z,63.58
2023-06-02T06:16:08.572Z,64.18
2023-06-02T06:17:08.704Z,64.83
2023-06-02T06:18:08.916Z,64.32
2023-06-02T06:19:08.998Z,64.68
2023-06-02T06:20:09.090Z,64.59
2023-06-02T06:21:09.244Z,64.49
2023-06-02T06:22:09.400Z,65.19
2023-06-02T06:23:09.486Z,64.60
2023-06-02T06:24:09.598Z,64.98
2023-06-02T06:25:09.707Z,65.14
2023-06-02T06:26:09.950Z,65.49
2023-06-02T06:27:11.232Z,64.82
2023-06-02T06:28:10.049Z,65.13
2023-06-02T06:29:10.185Z,64.81
2023-06-02T06:30:10.285Z,65.22
2023-06-02T06:31:10.383Z,64.85
2023-06-02T06:32:10.520Z,64.91
2023-06-02T06:33:10.622Z,64.55
2023-06-02T06:34:10.754Z,64.89
2023-06-02T06:35:10.922Z,64.99
2023-06-02T06:36:10.994Z,65.20
2023-06-02T06:37:11.106Z,65.55
2023-06-02T06:38:11.215Z,65.12
2023-06-02T06:39:11.356Z,65.50
2023-06-02T06:40:11.506Z,65.35
2023-06-02T06:41:11.623Z,65.25
2023-06-02T06:42:11.727Z,65.07
2023-06-02T06:43:23.604Z,65.59
2023-06-02T06:44:13.019Z,65.30
2023-06-02T06:45:12.059Z,65.64
2023-06-02T06:46:12.153Z,65.26
2023-06-02T06:47:12.382Z,65.63
2023-06-02T06:48:16.173Z,65.78
2023-06-02T06:49:12.541Z,66.10
2023-06-02T06:50:12.748Z,65.95
2023-06-02T06:51:12.821Z,66.24
2023-06-02T06:52:12.922Z,65.73
2023-06-02T06:53:13.006Z,65.14
2023-06-02T06:54:13.111Z,64.72
2023-06-02T06:55:13.255Z,65.49
2023-06-02T06:56:13.374Z,65.51
2023-06-02T06:57:13.489Z,65.62
2023-06-02T06:58:13.634Z,65.09
2023-06-02T06:59:13.724Z,65.10
2023-06-02T07:00:13.922Z,65.01
2023-06-02T07:01:14.013Z,64.94
2023-06-02T07:02:14.112Z,64.77
2023-06-02T07:03:14.356Z,64.75
2023-06-02T07:04:14.445Z,65.03
2023-06-02T07:05:14.426Z,65.29
2023-06-02T07:06:14.606Z,64.11
2023-06-02T07:07:14.707Z,63.84
2023-06-02T07:08:14.801Z,63.88
2023-06-02T07:09:14.950Z,64.53
2023-06-02T07:10:15.068Z,64.51
2023-06-02T07:11:15.193Z,65.08
2023-06-02T07:12:15.292Z,64.38
2023-06-02T07:13:15.409Z,64.80
2023-06-02T07:14:17.256Z,64.69
2023-06-02T07:15:16.145Z,65.03
2023-06-02T07:16:15.911Z,63.85
2023-06-02T07:17:15.881Z,64.44
2023-06-02T07:18:15.982Z,64.74
2023-06-02T07:19:16.097Z,65.12
2023-06-02T07:20:16.212Z,64.46
2023-06-02T07:21:16.360Z,64.36
2023-06-02T07:22:16.425Z,64.05
2023-06-02T07:23:16.530Z,64.56
2023-06-02T07:24:16.647Z,63.84
2023-06-02T07:25:16.745Z,64.10
2023-06-02T07:26:16.854Z,64.33
2023-06-02T07:27:16.993Z,63.17
2023-06-02T07:28:27.605Z,64.31
2023-06-02T07:29:18.223Z,63.53
2023-06-02T07:30:17.322Z,64.51
2023-06-02T07:31:17.574Z,64.11
2023-06-02T07:32:17.554Z,63.76
2023-06-02T07:33:17.668Z,63.98
2023-06-02T07:34:17.826Z,63.88
2023-06-02T07:35:17.920Z,63.64
2023-06-02T07:36:18.028Z,63.54
2023-06-02T07:37:18.145Z,62.79
2023-06-02T07:38:18.247Z,63.29
2023-06-02T07:39:18.364Z,62.89
2023-06-02T07:40:18.460Z,62.67
2023-06-02T07:41:18.930Z,61.78
2023-06-02T07:42:18.742Z,62.60
2023-06-02T07:43:18.919Z,61.83
2023-06-02T07:44:19.048Z,61.53
2023-06-02T07:45:19.134Z,62.80
2023-06-02T07:46:19.317Z,63.41
2023-06-02T07:47:19.394Z,62.05
2023-06-02T07:48:19.491Z,61.95
2023-06-02T07:49:19.667Z,61.99
2023-06-02T07:50:19.738Z,62.32
2023-06-02T07:51:19.885Z,62.67
2023-06-02T07:52:20.346Z,62.46
2023-06-02T07:53:20.094Z,61.40
2023-06-02T07:54:20.278Z,61.68
2023-06-02T07:55:20.862Z,61.91
2023-06-02T07:56:20.476Z,62.24
2023-06-02T07:57:20.596Z,61.96
2023-06-02T07:58:20.739Z,62.12
2023-06-02T07:59:20.875Z,62.25
2023-06-02T08:00:20.967Z,61.62
2023-06-02T08:01:21.130Z,60.57
2023-06-02T08:02:21.286Z,60.52
2023-06-02T08:03:21.420Z,60.26
2023-06-02T08:04:21.640Z,59.80
2023-06-02T08:05:21.660Z,59.96
2023-06-02T08:06:21.737Z,59.27
2023-06-02T08:07:21.893Z,58.71
2023-06-02T08:08:21.995Z,59.81
2023-06-02T08:09:22.153Z,59.92
2023-06-02T08:10:22.252Z,59.64
2023-06-02T08:11:22.424Z,59.20
2023-06-02T08:12:22.502Z,60.68
2023-06-02T08:13:22.594Z,59.93
2023-06-02T08:14:22.791Z,59.85
2023-06-02T08:15:22.869Z,60.01
2023-06-02T08:16:28.975Z,60.05
2023-06-02T08:17:24.143Z,59.82
2023-06-02T08:18:23.276Z,60.59
2023-06-02T08:19:23.413Z,60.92
2023-06-02T08:20:23.509Z,60.99
2023-06-02T08:21:23.688Z,60.09
2023-06-02T08:22:23.842Z,60.51
2023-06-02T08:23:23.949Z,60.27
2023-06-02T08:24:24.047Z,59.26
2023-06-02T08:25:24.151Z,60.42
2023-06-02T08:26:24.242Z,59.83
2023-06-02T08:27:24.393Z,60.68
2023-06-02T08:28:24.503Z,59.12
2023-06-02T08:29:24.901Z,60.21
2023-06-02T08:30:24.736Z,60.69
2023-06-02T08:31:24.983Z,61.24
2023-06-02T08:32:26.816Z,61.06
2023-06-02T08:33:25.134Z,60.05
2023-06-02T08:34:25.249Z,60.70
2023-06-02T08:35:25.498Z,61.40
2023-06-02T08:36:25.533Z,61.48
2023-06-02T08:37:25.661Z,61.72
2023-06-02T08:38:25.762Z,62.20
2023-06-02T08:39:25.801Z,61.76
2023-06-02T08:40:25.976Z,61.27
2023-06-02T08:41:26.082Z,62.18
2023-06-02T08:42:26.169Z,62.90
2023-06-02T08:43:26.335Z,62.18
2023-06-02T08:44:26.432Z,62.89
2023-06-02T08:45:26.563Z,62.67
2023-06-02T08:46:26.695Z,61.43
2023-06-02T08:47:26.899Z,62.17
2023-06-02T08:48:26.891Z,61.14
2023-06-02T08:49:27.005Z,60.72
2023-06-02T08:50:27.149Z,61.31
2023-06-02T08:51:27.246Z,60.16
2023-06-02T08:52:27.401Z,61.16
2023-06-02T08:53:27.512Z,60.77
2023-06-02T08:54:27.608Z,60.37
2023-06-02T08:55:27.740Z,61.05
2023-06-02T08:56:27.935Z,60.82
2023-06-02T08:57:27.973Z,59.92
2023-06-02T08:58:28.058Z,60.25
2023-06-02T08:59:28.213Z,60.50
2023-06-02T09:00:28.323Z,59.22
2023-06-02T09:01:28.467Z,60.40
2023-06-02T09:02:28.555Z,59.01
2023-06-02T09:03:45.430Z,59.56
2023-06-02T09:04:29.768Z,58.84
2023-06-02T09:05:28.884Z,59.31
2023-06-02T09:06:28.983Z,57.85
2023-06-02T09:07:29.090Z,58.79
2023-06-02T09:08:29.192Z,58.12
2023-06-02T09:09:29.334Z,58.07
2023-06-02T09:10:29.528Z,58.34
2023-06-02T09:11:29.610Z,58.16
2023-06-02T09:12:29.710Z,57.24
2023-06-02T09:13:29.823Z,57.00
2023-06-02T09:14:29.915Z,57.26
2023-06-02T09:15:30.083Z,56.49
2023-06-02T09:16:30.197Z,55.33
2023-06-02T09:17:30.325Z,55.46
2023-06-02T09:18:30.432Z,55.89
2023-06-02T09:19:30.548Z,56.69
2023-06-02T09:20:30.710Z,57.62
2023-06-02T09:21:30.863Z,56.78
2023-06-02T09:22:31.748Z,55.29
2023-06-02T09:23:33.404Z,55.47
2023-06-02T09:24:31.130Z,55.94
2023-06-02T09:25:31.389Z,54.65
2023-06-02T09:26:31.354Z,54.81
2023-06-02T09:27:31.462Z,55.49
2023-06-02T09:28:32.471Z,56.48
2023-06-02T09:29:31.658Z,55.51
2023-06-02T09:30:31.861Z,56.19
2023-06-02T09:31:31.947Z,54.91
2023-06-02T09:32:32.126Z,54.69
2023-06-02T09:33:32.127Z,55.59
2023-06-02T09:34:32.225Z,55.78
2023-06-02T09:35:32.336Z,55.03
2023-06-02T09:36:32.432Z,54.73
2023-06-02T09:37:32.608Z,56.24
2023-06-02T09:38:32.704Z,55.40
2023-06-02T09:39:32.848Z,55.36
2023-06-02T09:40:32.940Z,55.33
2023-06-02T09:41:33.088Z,55.54
2023-06-02T09:42:33.336Z,54.92
2023-06-02T09:43:33.389Z,53.85
2023-06-02T09:44:33.489Z,53.88
2023-06-02T09:45:33.650Z,54.89
2023-06-02T09:46:35.637Z,54.88
2023-06-02T09:47:34.082Z,54.79
2023-06-02T09:48:34.053Z,55.06
2023-06-02T09:49:34.101Z,54.48
2023-06-02T09:50:34.212Z,53.55
2023-06-02T09:51:34.318Z,53.46
2023-06-02T09:52:36.210Z,54.87
2023-06-02T09:53:34.556Z,54.25
2023-06-02T09:54:34.686Z,53.26
2023-06-02T09:55:34.784Z,52.92
2023-06-02T09:56:34.980Z,52.20
2023-06-02T09:57:35.008Z,51.04
2023-06-02T09:58:35.110Z,50.45
2023-06-02T09:59:35.220Z,50.92
2023-06-02T10:00:35.316Z,50.30
2023-06-02T10:01:35.545Z,49.68
2023-06-02T10:02:36.398Z,49.98
2023-06-02T10:03:35.808Z,50.55
2023-06-02T10:04:35.800Z,49.91
2023-06-02T10:05:35.912Z,50.46
2023-06-02T10:06:36.005Z,50.90
2023-06-02T10:07:36.161Z,50.40
2023-06-02T10:08:36.293Z,50.16
2023-06-02T10:09:36.388Z,50.78
2023-06-02T10:10:36.491Z,51.67
2023-06-02T10:11:36.592Z,50.35
2023-06-02T10:12:36.713Z,50.16
2023-06-02T10:13:36.816Z,51.00
2023-06-02T10:14:36.929Z,50.58
2023-06-02T10:15:37.142Z,49.78
2023-06-02T10:16:37.132Z,49.75
2023-06-02T10:17:37.314Z,50.49
2023-06-02T10:18:38.873Z,50.53
2023-06-02T10:19:37.489Z,50.13
2023-06-02T10:20:37.655Z,51.82
2023-06-02T10:21:37.758Z,52.45
2023-06-02T10:22:37.834Z,51.68
2023-06-02T10:23:38.109Z,51.12
2023-06-02T10:24:38.203Z,51.02
2023-06-02T10:25:38.201Z,48.89
2023-06-02T10:26:38.378Z,48.73
2023-06-02T10:27:38.444Z,47.95
2023-06-02T10:28:38.604Z,47.54
2023-06-02T10:29:38.765Z,50.34
2023-06-02T10:30:38.838Z,49.20
2023-06-02T10:31:38.999Z,50.08
2023-06-02T10:32:39.112Z,49.81
2023-06-02T10:33:39.171Z,50.71
2023-06-02T10:34:39.794Z,49.12
2023-06-02T10:35:39.430Z,48.73
2023-06-02T10:36:39.549Z,50.45
2023-06-02T10:37:39.671Z,47.85
2023-06-02T10:38:39.767Z,46.54
2023-06-02T10:39:39.862Z,45.17
2023-06-02T10:40:39.991Z,49.33
2023-06-02T10:41:40.082Z,48.70
2023-06-02T10:42:40.246Z,46.95
2023-06-02T10:43:40.361Z,46.74
2023-06-02T10:44:40.461Z,47.57
2023-06-02T10:45:40.601Z,49.28
2023-06-02T10:46:40.748Z,48.55
2023-06-02T10:47:40.846Z,47.41
2023-06-02T10:48:40.960Z,48.45
2023-06-02T10:49:50.395Z,46.62
2023-06-02T10:50:42.227Z,48.93
2023-06-02T10:51:41.340Z,51.45
2023-06-02T10:52:41.434Z,48.45
2023-06-02T10:53:41.594Z,47.32
2023-06-02T10:54:41.701Z,49.84
2023-06-02T10:55:41.821Z,50.75
2023-06-02T10:56:41.997Z,49.21
2023-06-02T10:57:42.067Z,48.70
2023-06-02T10:58:42.187Z,48.77
2023-06-02T10:59:42.282Z,49.04
2023-06-02T11:00:42.404Z,49.54
2023-06-02T11:01:42.595Z,49.58
2023-06-02T11:02:42.676Z,48.69
2023-06-02T11:03:42.771Z,49.06
2023-06-02T11:04:42.841Z,47.99
2023-06-02T11:05:42.964Z,48.60
2023-06-02T11:06:43.049Z,48.11
2023-06-02T11:07:43.175Z,48.97
2023-06-02T11:08:43.310Z,48.34
2023-06-02T11:09:43.404Z,47.14
2023-06-02T11:10:43.553Z,46.72
2023-06-02T11:11:43.671Z,47.92
2023-06-02T11:12:43.786Z,47.94
2023-06-02T11:13:43.891Z,48.51
2023-06-02T11:14:45.153Z,46.73
2023-06-02T11:15:44.129Z,48.57
2023-06-02T11:16:44.239Z,47.86
2023-06-02T11:17:44.456Z,47.83
2023-06-02T11:18:44.513Z,49.69
2023-06-02T11:19:44.596Z,49.12
2023-06-02T11:20:44.722Z,47.57
2023-06-02T11:21:44.853Z,48.34
2023-06-02T11:22:44.997Z,46.92
2023-06-02T11:23:45.034Z,48.96
2023-06-02T11:24:45.173Z,47.99
2023-06-02T11:25:45.325Z,46.55
2023-06-02T11:26:45.423Z,45.76
2023-06-02T11:27:45.568Z,48.80
2023-06-02T11:28:45.696Z,47.81
2023-06-02T11:29:45.795Z,47.31
2023-06-02T11:30:45.966Z,46.67
2023-06-02T11:31:46.002Z,46.72
2023-06-02T11:32:46.171Z,46.95
2023-06-02T11:33:46.275Z,46.55
2023-06-02T11:34:46.369Z,45.73
2023-06-02T11:35:46.511Z,44.52
2023-06-02T11:36:46.594Z,46.03
2023-06-02T11:37:46.700Z,44.05
2023-06-02T11:38:46.810Z,45.88
2023-06-02T11:39:46.911Z,46.04
2023-06-02T11:40:47.020Z,45.40
2023-06-02T11:41:47.122Z,45.58
2023-06-02T11:42:47.274Z,45.01
2023-06-02T11:43:47.464Z,45.34
2023-06-02T11:44:47.545Z,45.54
2023-06-02T11:45:47.711Z,47.43
2023-06-02T11:46:47.796Z,45.12
2023-06-02T11:47:47.963Z,44.99
2023-06-02T11:48:48.095Z,46.26
2023-06-02T11:49:48.129Z,46.22
2023-06-02T11:50:48.235Z,47.56
2023-06-02T11:51:48.346Z,46.53
2023-06-02T11:52:48.432Z,47.58
2023-06-02T11:53:48.601Z,46.45
2023-06-02T11:54:48.771Z,48.24
2023-06-02T11:55:48.961Z,49.61
2023-06-02T11:56:48.860Z,49.01
2023-06-02T11:57:49.021Z,46.09
2023-06-02T11:58:49.191Z,47.26
2023-06-02T11:59:49.280Z,46.77
2023-06-02T12:00:49.370Z,46.45
2023-06-02T12:01:49.534Z,47.06
2023-06-02T12:02:49.693Z,47.81
2023-06-02T12:03:49.839Z,47.32
2023-06-02T12:04:50.034Z,47.41
2023-06-02T12:05:49.991Z,47.45
2023-06-02T12:06:50.074Z,48.03
2023-06-02T12:07:50.224Z,47.83
2023-06-02T12:08:50.330Z,49.23
2023-06-02T12:09:50.470Z,47.89
2023-06-02T12:10:50.579Z,47.38
2023-06-02T12:11:50.675Z,46.66
2023-06-02T12:12:50.809Z,49.13
2023-06-02T12:13:51.879Z,46.11
2023-06-02T12:14:51.078Z,46.44
2023-06-02T12:15:51.186Z,45.89
2023-06-02T12:16:51.376Z,46.34
2023-06-02T12:17:51.436Z,45.75
2023-06-02T12:18:51.535Z,45.61
2023-06-02T12:19:51.630Z,44.79
2023-06-02T12:20:51.777Z,45.29
2023-06-02T12:21:51.885Z,45.16
2023-06-02T12:22:52.026Z,45.53
2023-06-02T12:23:52.137Z,45.90
2023-06-02T12:24:52.274Z,44.38
2023-06-02T12:25:52.422Z,45.01
2023-06-02T12:26:52.550Z,42.99
2023-06-02T12:27:52.646Z,42.81
2023-06-02T12:28:52.798Z,42.80
2023-06-02T12:29:52.906Z,42.91
2023-06-02T12:30:53.086Z,43.46
2023-06-02T12:31:53.114Z,43.81
2023-06-02T12:32:53.249Z,44.02
2023-06-02T12:33:53.370Z,45.51
2023-06-02T12:34:53.480Z,45.64
2023-06-02T12:35:53.661Z,46.27
2023-06-02T12:36:53.765Z,44.68
2023-06-02T12:37:53.839Z,45.52
2023-06-02T12:38:53.951Z,44.91
2023-06-02T12:39:54.063Z,44.18
2023-06-02T12:40:54.167Z,44.70
2023-06-02T12:41:54.271Z,44.89
2023-06-02T12:42:54.950Z,44.57
2023-06-02T12:43:54.511Z,45.76
2023-06-02T12:44:54.660Z,44.36
2023-06-02T12:45:54.767Z,44.88
2023-06-02T12:46:55.018Z,44.22
2023-06-02T12:47:55.024Z,44.07
2023-06-02T12:48:55.099Z,44.06
2023-06-02T12:49:55.253Z,44.53
2023-06-02T12:50:55.414Z,45.69
2023-06-02T12:51:55.464Z,45.83
2023-06-02T12:52:55.580Z,45.78
2023-06-02T12:53:55.674Z,45.21